createdAt,value
2019-03-25T00:00:13.363Z,58.65
2019-03-25T00:01:13.351Z,58.32
2019-03-25T00:02:13.340Z,58.42
2019-03-25T00:03:13.363Z,58.01
2019-03-25T00:04:13.329Z,57.91
2019-03-25T00:05:13.347Z,57.70
2019-03-25T00:06:13.303Z,57.52
2019-03-25T00:07:13.293Z,58.55
2019-03-25T00:08:13.292Z,58.97
2019-03-25T00:09:13.270Z,60.82
2019-03-25T00:10:13.265Z,59.58
2019-03-25T00:11:13.247Z,58.11
2019-03-25T00:12:13.240Z,59.25
2019-03-25T00:13:13.241Z,58.42
2019-03-25T00:14:13.218Z,58.42
2019-03-25T00:15:13.211Z,57.88
2019-03-25T00:16:13.188Z,58.09
2019-03-25T00:17:13.238Z,58.42
2019-03-25T00:18:13.227Z,58.11
2019-03-25T00:19:13.197Z,57.81
2019-03-25T00:20:13.150Z,58.22
2019-03-25T00:21:13.142Z,57.26
2019-03-25T00:22:13.136Z,57.47
2019-03-25T00:23:13.189Z,58.40
2019-03-25T00:24:13.111Z,57.91
2019-03-25T00:25:13.219Z,58.42
2019-03-25T00:26:13.083Z,57.91
2019-03-25T00:27:13.089Z,58.01
2019-03-25T00:28:13.853Z,58.42
2019-03-25T00:29:13.050Z,58.01
2019-03-25T00:30:13.042Z,57.81
2019-03-25T00:31:13.032Z,58.73
2019-03-25T00:32:13.025Z,58.63
2019-03-25T00:33:13.019Z,58.53
2019-03-25T00:34:12.992Z,58.01
2019-03-25T00:35:12.989Z,58.42
2019-03-25T00:36:12.974Z,57.50
2019-03-25T00:37:12.977Z,58.45
2019-03-25T00:38:13.000Z,58.55
2019-03-25T00:39:12.941Z,58.86
2019-03-25T00:40:12.937Z,59.17
2019-03-25T00:41:12.915Z,58.69
2019-03-25T00:42:12.919Z,58.58
2019-03-25T00:43:12.895Z,58.45
2019-03-25T00:44:12.887Z,58.99
2019-03-25T00:45:12.871Z,58.97
2019-03-25T00:46:12.871Z,58.25
2019-03-25T00:47:12.848Z,58.35
2019-03-25T00:48:12.847Z,57.73
2019-03-25T00:49:12.847Z,58.65
2019-03-25T00:50:12.820Z,59.07
2019-03-25T00:51:12.808Z,58.45
2019-03-25T00:52:12.791Z,57.83
2019-03-25T00:53:12.792Z,58.37
2019-03-25T00:54:12.789Z,58.69
2019-03-25T00:55:12.767Z,58.99
2019-03-25T00:56:12.757Z,59.30
2019-03-25T00:57:12.748Z,59.51
2019-03-25T00:58:12.725Z,59.07
2019-03-25T00:59:12.719Z,59.69
2019-03-25T01:00:12.725Z,58.45
2019-03-25T01:01:12.729Z,58.97
2019-03-25T01:02:12.689Z,59.17
2019-03-25T01:03:12.682Z,58.65
2019-03-25T01:04:12.728Z,59.82
2019-03-25T01:05:12.652Z,60.10
2019-03-25T01:06:12.636Z,59.41
2019-03-25T01:07:12.748Z,59.72
2019-03-25T01:08:12.622Z,59.61
2019-03-25T01:09:12.609Z,59.61
2019-03-25T01:10:12.610Z,59.58
2019-03-25T01:11:12.586Z,59.72
2019-03-25T01:12:12.582Z,59.72
2019-03-25T01:13:12.571Z,59.72
2019-03-25T01:14:12.558Z,60.02
2019-03-25T01:15:12.544Z,59.92
2019-03-25T01:16:12.538Z,60.54
2019-03-25T01:17:12.529Z,59.82
2019-03-25T01:18:17.039Z,60.02
2019-03-25T01:19:12.495Z,60.33
2019-03-25T01:20:12.549Z,60.23
2019-03-25T01:21:12.478Z,59.72
2019-03-25T01:22:12.476Z,60.33
2019-03-25T01:23:12.484Z,60.13
2019-03-25T01:24:12.452Z,59.92
2019-03-25T01:25:12.503Z,60.54
2019-03-25T01:26:12.421Z,60.13
2019-03-25T01:27:12.411Z,60.23
2019-03-25T01:28:12.404Z,60.47
2019-03-25T01:29:12.422Z,60.67
2019-03-25T01:30:12.417Z,60.67
2019-03-25T01:31:12.388Z,60.88
2019-03-25T01:32:12.357Z,61.08
2019-03-25T01:33:12.355Z,61.80
2019-03-25T01:34:12.337Z,60.98
2019-03-25T01:35:12.321Z,61.29
2019-03-25T01:36:12.367Z,61.19
2019-03-25T01:37:12.300Z,60.98
2019-03-25T01:38:12.289Z,62.01
2019-03-25T01:39:12.285Z,61.08
2019-03-25T01:40:12.276Z,62.12
2019-03-25T01:41:12.267Z,62.74
2019-03-25T01:42:12.261Z,63.04
2019-03-25T01:43:12.378Z,61.80
2019-03-25T01:44:12.231Z,62.63
2019-03-25T01:45:12.225Z,61.50
2019-03-25T01:46:12.225Z,60.77
2019-03-25T01:47:12.190Z,62.94
2019-03-25T01:48:12.186Z,61.80
2019-03-25T01:49:12.173Z,62.12
2019-03-25T01:50:12.176Z,62.12
2019-03-25T01:51:12.179Z,60.54
2019-03-25T01:52:12.153Z,60.75
2019-03-25T01:53:12.142Z,61.68
2019-03-25T01:54:12.115Z,60.54
2019-03-25T01:55:13.729Z,60.75
2019-03-25T01:56:12.103Z,60.57
2019-03-25T01:57:12.098Z,60.77
2019-03-25T01:58:12.077Z,61.50
2019-03-25T01:59:12.060Z,62.84
2019-03-25T02:00:12.055Z,61.70
2019-03-25T02:01:12.044Z,60.70
2019-03-25T02:02:12.033Z,61.63
2019-03-25T02:03:12.019Z,62.04
2019-03-25T02:04:12.015Z,61.63
2019-03-25T02:05:12.007Z,62.04
2019-03-25T02:06:11.993Z,62.55
2019-03-25T02:07:11.994Z,62.66
2019-03-25T02:08:11.967Z,62.35
2019-03-25T02:09:11.973Z,62.15
2019-03-25T02:10:11.945Z,62.15
2019-03-25T02:11:11.933Z,61.94
2019-03-25T02:12:11.926Z,62.76
2019-03-25T02:13:11.911Z,63.18
2019-03-25T02:14:11.912Z,61.83
2019-03-25T02:15:11.894Z,61.83
2019-03-25T02:16:11.880Z,62.35
2019-03-25T02:17:11.862Z,62.76
2019-03-25T02:18:11.858Z,63.28
2019-03-25T02:19:11.858Z,61.94
2019-03-25T02:20:11.838Z,63.28
2019-03-25T02:21:11.848Z,63.18
2019-03-25T02:22:11.813Z,62.66
2019-03-25T02:23:11.921Z,62.35
2019-03-25T02:24:11.919Z,62.46
2019-03-25T02:25:11.787Z,62.87
2019-03-25T02:26:11.807Z,63.07
2019-03-25T02:27:11.763Z,63.10
2019-03-25T02:28:11.746Z,63.28
2019-03-25T02:29:11.734Z,63.51
2019-03-25T02:30:11.729Z,63.18
2019-03-25T02:31:11.726Z,62.87
2019-03-25T02:32:11.714Z,62.97
2019-03-25T02:33:11.688Z,63.49
2019-03-25T02:34:11.680Z,63.69
2019-03-25T02:35:11.678Z,63.28
2019-03-25T02:36:11.664Z,62.97
2019-03-25T02:37:11.650Z,62.76
2019-03-25T02:38:11.647Z,62.97
2019-03-25T02:39:11.630Z,63.39
2019-03-25T02:40:11.618Z,62.55
2019-03-25T02:41:11.639Z,62.97
2019-03-25T02:42:11.599Z,62.97
2019-03-25T02:43:11.591Z,62.66
2019-03-25T02:44:11.583Z,63.39
2019-03-25T02:45:11.557Z,63.69
2019-03-25T02:46:11.555Z,63.69
2019-03-25T02:47:11.544Z,63.62
2019-03-25T02:48:11.554Z,63.07
2019-03-25T02:49:11.557Z,62.87
2019-03-25T02:50:11.504Z,63.42
2019-03-25T02:51:11.500Z,64.34
2019-03-25T02:52:11.487Z,64.14
2019-03-25T02:53:11.490Z,63.42
2019-03-25T02:54:11.474Z,63.21
2019-03-25T02:55:11.479Z,63.51
2019-03-25T02:56:11.436Z,63.28
2019-03-25T02:57:11.438Z,63.18
2019-03-25T02:58:11.421Z,62.79
2019-03-25T02:59:11.459Z,62.79
2019-03-25T03:00:11.455Z,63.51
2019-03-25T03:01:11.410Z,63.10
2019-03-25T03:02:11.370Z,63.72
2019-03-25T03:03:11.373Z,63.51
2019-03-25T03:04:11.357Z,63.31
2019-03-25T03:05:11.343Z,63.31
2019-03-25T03:06:11.355Z,63.62
2019-03-25T03:07:11.345Z,63.51
2019-03-25T03:08:11.309Z,63.93
2019-03-25T03:09:11.311Z,63.54
2019-03-25T03:10:11.295Z,63.72
2019-03-25T03:11:11.283Z,63.62
2019-03-25T03:12:11.278Z,63.62
2019-03-25T03:13:11.263Z,63.72
2019-03-25T03:14:14.915Z,64.55
2019-03-25T03:15:11.334Z,63.31
2019-03-25T03:16:11.230Z,64.45
2019-03-25T03:17:11.247Z,64.24
2019-03-25T03:18:11.214Z,63.21
2019-03-25T03:19:11.191Z,62.90
2019-03-25T03:20:11.179Z,63.51
2019-03-25T03:21:11.175Z,63.72
2019-03-25T03:22:11.165Z,63.03
2019-03-25T03:23:11.197Z,63.93
2019-03-25T03:24:11.150Z,63.10
2019-03-25T03:25:11.129Z,63.75
2019-03-25T03:26:11.128Z,64.06
2019-03-25T03:27:11.108Z,64.27
2019-03-25T03:28:11.122Z,63.96
2019-03-25T03:29:11.156Z,63.75
2019-03-25T03:30:11.084Z,63.10
2019-03-25T03:31:11.059Z,63.65
2019-03-25T03:32:11.058Z,63.85
2019-03-25T03:33:11.046Z,64.06
2019-03-25T03:34:11.054Z,64.40
2019-03-25T03:35:11.041Z,64.71
2019-03-25T03:36:11.038Z,64.20
2019-03-25T03:37:11.008Z,64.61
2019-03-25T03:38:10.981Z,64.61
2019-03-25T03:39:10.986Z,64.71
2019-03-25T03:40:11.002Z,64.71
2019-03-25T03:41:10.962Z,64.30
2019-03-25T03:42:10.949Z,64.81
2019-03-25T03:43:10.935Z,63.99
2019-03-25T03:44:10.920Z,64.61
2019-03-25T03:45:18.640Z,64.92
2019-03-25T03:46:52.585Z,64.71
2019-03-25T03:47:52.644Z,63.26
2019-03-25T03:49:34.202Z,63.75
2019-03-25T03:50:34.197Z,63.85
2019-03-25T03:52:15.871Z,64.06
2019-03-25T03:53:16.856Z,63.54
2019-03-25T03:54:57.528Z,63.23
2019-03-25T03:56:12.058Z,63.54
2019-03-25T03:56:58.543Z,63.13
2019-03-25T03:57:57.479Z,63.89
2019-03-25T03:58:57.466Z,63.47
2019-03-25T03:59:57.456Z,63.57
2019-03-25T04:00:57.452Z,63.89
2019-03-25T04:01:57.430Z,63.16
2019-03-25T04:02:57.423Z,63.57
2019-03-25T04:03:57.408Z,64.20
2019-03-25T04:04:57.401Z,63.47
2019-03-25T04:05:57.387Z,63.60
2019-03-25T04:06:57.382Z,64.12
2019-03-25T04:07:57.462Z,63.68
2019-03-25T04:08:57.359Z,63.68
2019-03-25T04:09:57.417Z,64.09
2019-03-25T04:10:57.334Z,63.68
2019-03-25T04:11:57.334Z,63.89
2019-03-25T04:12:57.329Z,63.57
2019-03-25T04:13:57.304Z,63.68
2019-03-25T04:14:57.294Z,63.57
2019-03-25T04:16:01.085Z,63.26
2019-03-25T04:16:57.281Z,63.68
2019-03-25T04:17:57.329Z,63.47
2019-03-25T04:18:57.262Z,64.09
2019-03-25T04:19:57.233Z,64.20
2019-03-25T04:20:57.221Z,63.26
2019-03-25T04:21:57.231Z,63.99
2019-03-25T04:22:57.223Z,63.57
2019-03-25T04:23:57.196Z,63.89
2019-03-25T04:24:57.196Z,63.89
2019-03-25T04:25:57.167Z,64.23
2019-03-25T04:26:57.162Z,64.74
2019-03-25T04:27:57.142Z,64.43
2019-03-25T04:28:57.131Z,64.74
2019-03-25T04:29:57.128Z,64.95
2019-03-25T04:30:57.119Z,64.74
2019-03-25T04:31:57.116Z,64.98
2019-03-25T04:32:57.102Z,64.77
2019-03-25T04:33:57.098Z,64.46
2019-03-25T04:34:57.080Z,64.56
2019-03-25T04:35:57.070Z,64.64
2019-03-25T04:36:57.058Z,64.53
2019-03-25T04:37:57.039Z,65.26
2019-03-25T04:38:57.033Z,65.91
2019-03-25T04:39:57.018Z,64.23
2019-03-25T04:40:57.004Z,64.95
2019-03-25T04:41:56.992Z,64.95
2019-03-25T04:42:56.983Z,65.67
2019-03-25T04:43:56.971Z,64.56
2019-03-25T04:44:56.968Z,64.53
2019-03-25T04:45:56.953Z,65.36
2019-03-25T04:46:56.957Z,64.43
2019-03-25T04:47:56.929Z,65.50
2019-03-25T04:48:56.916Z,65.39
2019-03-25T04:49:56.906Z,64.25
2019-03-25T04:50:56.906Z,64.56
2019-03-25T04:51:56.891Z,64.87
2019-03-25T04:52:56.898Z,64.87
2019-03-25T04:53:56.858Z,65.60
2019-03-25T04:54:56.864Z,65.39
2019-03-25T04:55:56.842Z,64.87
2019-03-25T04:56:56.827Z,64.87
2019-03-25T04:57:56.823Z,65.05
2019-03-25T04:58:56.833Z,64.53
2019-03-25T04:59:56.793Z,64.53
2019-03-25T05:00:56.790Z,64.32
2019-03-25T05:01:56.771Z,63.92
2019-03-25T05:02:56.763Z,64.23
2019-03-25T05:03:56.765Z,64.12
2019-03-25T05:04:56.745Z,63.71
2019-03-25T05:05:56.733Z,64.36
2019-03-25T05:06:56.717Z,64.32
2019-03-25T05:07:56.714Z,64.23
2019-03-25T05:08:56.693Z,63.92
2019-03-25T05:09:56.688Z,63.92
2019-03-25T05:10:56.678Z,63.40
2019-03-25T05:11:56.666Z,63.71
2019-03-25T05:12:56.661Z,63.71
2019-03-25T05:13:56.652Z,63.74
2019-03-25T05:14:56.649Z,63.74
2019-03-25T05:15:56.618Z,63.92
2019-03-25T05:16:56.695Z,63.95
2019-03-25T05:17:56.605Z,64.02
2019-03-25T05:18:56.587Z,63.71
2019-03-25T05:19:56.583Z,63.40
2019-03-25T05:20:56.567Z,64.02
2019-03-25T05:21:56.570Z,64.02
2019-03-25T05:22:56.555Z,63.40
2019-03-25T05:23:56.546Z,63.92
2019-03-25T05:24:56.524Z,63.47
2019-03-25T05:25:56.516Z,63.71
2019-03-25T05:26:56.509Z,63.78
2019-03-25T05:27:56.485Z,63.89
2019-03-25T05:28:56.477Z,63.92
2019-03-25T05:29:56.459Z,63.71
2019-03-25T05:30:56.462Z,63.71
2019-03-25T05:31:56.457Z,63.81
2019-03-25T05:32:56.435Z,64.02
2019-03-25T05:33:56.431Z,63.71
2019-03-25T05:34:56.423Z,63.60
2019-03-25T05:35:56.401Z,63.50
2019-03-25T05:36:56.391Z,63.81
2019-03-25T05:37:56.407Z,64.53
2019-03-25T05:38:56.368Z,63.50
2019-03-25T05:39:56.357Z,63.40
2019-03-25T05:40:56.342Z,63.50
2019-03-25T05:41:56.334Z,64.53
2019-03-25T05:42:56.331Z,63.92
2019-03-25T05:43:56.326Z,64.32
2019-03-25T05:44:56.301Z,64.53
2019-03-25T05:45:56.311Z,64.53
2019-03-25T05:46:56.274Z,66.39
2019-03-25T05:47:56.271Z,66.81
2019-03-25T05:48:56.262Z,66.50
2019-03-25T05:49:56.275Z,68.08
2019-03-25T05:50:56.236Z,67.95
2019-03-25T05:51:56.226Z,68.46
2019-03-25T05:52:56.222Z,69.01
2019-03-25T05:53:56.201Z,71.08
2019-03-25T05:54:56.195Z,71.39
2019-03-25T05:55:56.175Z,72.33
2019-03-25T05:57:02.485Z,73.25
2019-03-25T05:57:57.163Z,74.12
2019-03-25T05:58:56.180Z,74.22
2019-03-25T05:59:56.135Z,74.46
2019-03-25T06:00:56.124Z,74.98
2019-03-25T06:01:56.138Z,76.26
2019-03-25T06:02:56.129Z,77.40
2019-03-25T06:03:56.109Z,77.81
2019-03-25T06:04:56.091Z,79.27
2019-03-25T06:05:56.125Z,78.44
2019-03-25T06:06:56.062Z,78.54
2019-03-25T06:07:56.050Z,79.27
2019-03-25T06:08:56.048Z,79.68
2019-03-25T06:09:56.036Z,80.92
2019-03-25T06:10:56.016Z,80.51
2019-03-25T06:11:56.002Z,79.37
2019-03-25T06:12:56.010Z,80.82
2019-03-25T06:13:55.987Z,80.09
2019-03-25T06:14:55.975Z,80.75
2019-03-25T06:15:55.974Z,80.92
2019-03-25T06:16:55.948Z,81.48
2019-03-25T06:17:55.944Z,81.48
2019-03-25T06:18:55.933Z,81.89
2019-03-25T06:19:55.919Z,81.75
2019-03-25T06:20:55.940Z,81.37
2019-03-25T06:21:55.894Z,81.79
2019-03-25T06:22:55.886Z,81.58
2019-03-25T06:23:55.888Z,81.58
2019-03-25T06:24:55.876Z,81.48
2019-03-25T06:25:55.866Z,82.86
2019-03-25T06:26:55.856Z,82.51
2019-03-25T06:27:55.829Z,82.82
2019-03-25T06:28:55.818Z,83.14
2019-03-25T06:29:55.830Z,82.82
2019-03-25T06:30:55.819Z,83.03
2019-03-25T06:31:55.790Z,81.68
2019-03-25T06:32:55.770Z,81.79
2019-03-25T06:33:55.795Z,81.68
2019-03-25T06:34:55.750Z,81.99
2019-03-25T06:35:55.793Z,82.10
2019-03-25T06:36:55.735Z,81.99
2019-03-25T06:37:55.727Z,81.99
2019-03-25T06:38:55.695Z,83.24
2019-03-25T06:39:55.690Z,84.07
2019-03-25T06:40:55.679Z,82.10
2019-03-25T06:41:55.672Z,82.34
2019-03-25T06:42:55.731Z,82.49
2019-03-25T06:43:55.664Z,82.90
2019-03-25T06:44:55.674Z,84.77
2019-03-25T06:45:55.635Z,84.50
2019-03-25T06:46:55.629Z,84.19
2019-03-25T06:47:55.609Z,84.60
2019-03-25T06:48:55.611Z,84.56
2019-03-25T06:49:55.636Z,84.05
2019-03-25T06:50:55.577Z,83.04
2019-03-25T06:51:55.596Z,82.87
2019-03-25T06:52:55.583Z,83.39
2019-03-25T06:53:55.555Z,84.05
2019-03-25T06:54:55.539Z,86.03
2019-03-25T06:55:55.516Z,85.30
2019-03-25T06:56:55.513Z,86.90
2019-03-25T06:57:55.503Z,86.55
2019-03-25T06:58:55.485Z,87.01
2019-03-25T06:59:55.480Z,87.84
2019-03-25T07:00:55.484Z,87.84
2019-03-25T07:01:55.458Z,87.90
2019-03-25T07:02:55.445Z,86.55
2019-03-25T07:03:55.448Z,86.03
2019-03-25T07:04:55.433Z,85.20
2019-03-25T07:05:55.425Z,86.27
2019-03-25T07:06:55.402Z,86.27
2019-03-25T07:07:55.393Z,85.90
2019-03-25T07:08:55.387Z,86.17
2019-03-25T07:09:55.366Z,86.80
2019-03-25T07:10:55.364Z,86.83
2019-03-25T07:11:55.352Z,86.38
2019-03-25T07:12:55.345Z,86.59
2019-03-25T07:13:55.336Z,85.96
2019-03-25T07:14:55.316Z,86.49
2019-03-25T07:15:55.427Z,87.25
2019-03-25T07:16:55.304Z,87.01
2019-03-25T07:17:55.278Z,86.80
2019-03-25T07:18:55.271Z,87.63
2019-03-25T07:19:55.305Z,87.07
2019-03-25T07:20:55.250Z,87.17
2019-03-25T07:21:55.246Z,86.49
2019-03-25T07:22:55.235Z,86.44
2019-03-25T07:23:55.215Z,86.65
2019-03-25T07:24:55.203Z,86.55
2019-03-25T07:25:55.200Z,86.44
2019-03-25T07:26:55.636Z,87.48
2019-03-25T07:27:55.177Z,88.00
2019-03-25T07:28:55.225Z,87.63
2019-03-25T07:29:55.155Z,88.21
2019-03-25T07:30:55.145Z,87.69
2019-03-25T07:31:55.138Z,88.21
2019-03-25T07:32:55.115Z,87.17
2019-03-25T07:33:55.118Z,86.76
2019-03-25T07:34:55.096Z,86.96
2019-03-25T07:35:55.100Z,88.10
2019-03-25T07:36:55.077Z,87.65
2019-03-25T07:37:55.070Z,88.59
2019-03-25T07:38:55.048Z,87.86
2019-03-25T07:39:55.045Z,87.30
2019-03-25T07:40:55.029Z,86.57
2019-03-25T07:41:55.013Z,86.72
2019-03-25T07:42:55.026Z,88.34
2019-03-25T07:43:55.005Z,86.68
2019-03-25T07:44:55.010Z,86.78
2019-03-25T07:45:54.972Z,86.26
2019-03-25T07:46:54.962Z,86.36
2019-03-25T07:47:54.950Z,86.68
2019-03-25T07:48:54.944Z,88.02
2019-03-25T07:49:54.944Z,88.85
2019-03-25T07:50:54.948Z,87.40
2019-03-25T07:51:54.910Z,86.33
2019-03-25T07:52:54.912Z,86.47
2019-03-25T07:53:54.894Z,86.57
2019-03-25T07:54:54.898Z,88.30
2019-03-25T07:55:54.870Z,87.05
2019-03-25T07:56:54.890Z,86.64
2019-03-25T07:57:54.890Z,86.74
2019-03-25T07:58:54.855Z,87.01
2019-03-25T07:59:54.937Z,86.39
2019-03-25T08:00:54.847Z,86.08
2019-03-25T08:01:54.836Z,86.39
2019-03-25T08:02:54.799Z,86.60
2019-03-25T08:03:54.801Z,86.49
2019-03-25T08:04:54.761Z,86.35
2019-03-25T08:05:54.762Z,85.31
2019-03-25T08:06:54.776Z,85.46
2019-03-25T08:07:54.898Z,87.07
2019-03-25T08:09:03.299Z,85.46
2019-03-25T08:09:55.714Z,86.45
2019-03-25T08:10:54.701Z,86.60
2019-03-25T08:11:54.692Z,87.49
2019-03-25T08:12:54.776Z,86.29
2019-03-25T08:13:54.670Z,86.49
2019-03-25T08:14:54.650Z,87.07
2019-03-25T08:15:54.727Z,86.66
2019-03-25T08:16:54.633Z,86.55
2019-03-25T08:17:54.633Z,85.94
2019-03-25T08:18:54.620Z,85.83
2019-03-25T08:19:54.595Z,86.35
2019-03-25T08:20:54.579Z,85.73
2019-03-25T08:21:54.569Z,86.66
2019-03-25T08:22:54.570Z,86.15
2019-03-25T08:23:54.553Z,85.63
2019-03-25T08:24:54.631Z,85.00
2019-03-25T08:25:54.532Z,84.38
2019-03-25T08:26:54.524Z,83.14
2019-03-25T08:28:00.001Z,83.97
2019-03-25T08:28:55.498Z,84.55
2019-03-25T08:29:54.492Z,85.06
2019-03-25T08:30:54.478Z,84.23
2019-03-25T08:31:54.467Z,84.03
2019-03-25T08:32:54.470Z,83.00
2019-03-25T08:33:54.438Z,82.89
2019-03-25T08:34:54.440Z,84.55
2019-03-25T08:35:54.416Z,83.83
2019-03-25T08:36:54.402Z,84.03
2019-03-25T08:37:54.410Z,83.83
2019-03-25T08:38:54.384Z,84.34
2019-03-25T08:39:54.385Z,84.23
2019-03-25T08:40:54.363Z,84.59
2019-03-25T08:41:54.402Z,84.07
2019-03-25T08:42:54.334Z,84.28
2019-03-25T08:43:54.323Z,84.38
2019-03-25T08:44:54.316Z,84.90
2019-03-25T08:45:54.308Z,85.00
2019-03-25T08:46:54.292Z,84.90
2019-03-25T08:47:54.282Z,85.21
2019-03-25T08:48:54.269Z,85.11
2019-03-25T08:49:54.263Z,86.15
2019-03-25T08:50:54.271Z,85.00
2019-03-25T08:51:54.237Z,84.44
2019-03-25T08:52:54.229Z,84.23
2019-03-25T08:53:54.216Z,84.23
2019-03-25T08:54:54.207Z,86.37
2019-03-25T08:55:54.190Z,84.41
2019-03-25T08:56:54.181Z,83.23
2019-03-25T08:57:54.171Z,84.27
2019-03-25T08:58:54.165Z,82.78
2019-03-25T08:59:54.160Z,82.57
2019-03-25T09:00:54.150Z,81.54
2019-03-25T09:01:54.127Z,81.64
2019-03-25T09:02:54.113Z,80.60
2019-03-25T09:03:54.103Z,81.84
2019-03-25T09:04:54.093Z,81.12
2019-03-25T09:05:54.091Z,81.05
2019-03-25T09:06:54.069Z,82.50
2019-03-25T09:07:54.076Z,81.57
2019-03-25T09:08:54.050Z,81.68
2019-03-25T09:09:54.039Z,81.54
2019-03-25T09:10:54.022Z,81.64
2019-03-25T09:11:54.019Z,81.23
2019-03-25T09:12:54.004Z,81.05
2019-03-25T09:13:54.009Z,81.47
2019-03-25T09:14:53.991Z,81.57
2019-03-25T09:15:53.985Z,81.47
2019-03-25T09:16:53.966Z,82.81
2019-03-25T09:17:53.960Z,84.09
2019-03-25T09:18:53.945Z,82.75
2019-03-25T09:19:53.945Z,82.86
2019-03-25T09:20:53.916Z,82.65
2019-03-25T09:21:53.906Z,82.86
2019-03-25T09:22:53.938Z,83.02
2019-03-25T09:23:53.894Z,82.23
2019-03-25T09:24:53.884Z,82.44
2019-03-25T09:25:53.865Z,81.61
2019-03-25T09:26:53.863Z,81.51
2019-03-25T09:27:53.846Z,82.86
2019-03-25T09:28:53.836Z,82.19
2019-03-25T09:29:53.842Z,81.47
2019-03-25T09:30:53.823Z,81.61
2019-03-25T09:31:53.806Z,81.78
2019-03-25T09:32:53.792Z,82.19
2019-03-25T09:33:53.778Z,81.47
2019-03-25T09:34:53.766Z,81.57
2019-03-25T09:35:53.851Z,81.47
2019-03-25T09:36:53.771Z,81.19
2019-03-25T09:37:53.753Z,80.91
2019-03-25T09:38:53.724Z,81.39
2019-03-25T09:39:53.712Z,81.19
2019-03-25T09:40:53.750Z,78.29
2019-03-25T09:41:53.704Z,78.25
2019-03-25T09:42:53.688Z,78.50
2019-03-25T09:43:53.671Z,77.64
2019-03-25T09:44:53.695Z,77.64
2019-03-25T09:45:53.652Z,77.77
2019-03-25T09:46:53.645Z,75.81
2019-03-25T09:47:53.643Z,75.19
2019-03-25T09:48:53.630Z,75.26
2019-03-25T09:49:53.600Z,75.98
2019-03-25T09:50:53.615Z,75.15
2019-03-25T09:51:53.585Z,74.95
2019-03-25T09:52:53.593Z,75.67
2019-03-25T09:53:53.555Z,75.88
2019-03-25T09:54:53.541Z,75.67
2019-03-25T09:55:53.533Z,75.98
2019-03-25T09:56:53.545Z,77.22
2019-03-25T09:57:53.519Z,75.95
2019-03-25T09:58:53.512Z,75.53
2019-03-25T09:59:53.499Z,74.50
2019-03-25T10:00:53.485Z,75.12
2019-03-25T10:01:53.481Z,74.40
2019-03-25T10:02:53.460Z,74.71
2019-03-25T10:03:53.467Z,74.08
2019-03-25T10:04:53.432Z,74.74
2019-03-25T10:05:53.442Z,75.67
2019-03-25T10:06:53.421Z,74.74
2019-03-25T10:07:53.411Z,74.71
2019-03-25T10:08:53.400Z,74.91
2019-03-25T10:09:53.394Z,74.91
2019-03-25T10:10:53.375Z,74.29
2019-03-25T10:11:53.362Z,74.50
2019-03-25T10:12:53.361Z,74.29
2019-03-25T10:13:53.355Z,73.98
2019-03-25T10:14:53.337Z,73.98
2019-03-25T10:15:53.338Z,73.98
2019-03-25T10:16:53.337Z,73.74
2019-03-25T10:17:53.311Z,74.22
2019-03-25T10:18:53.293Z,72.26
2019-03-25T10:19:53.303Z,72.99
2019-03-25T10:20:53.272Z,72.67
2019-03-25T10:21:53.261Z,73.09
2019-03-25T10:22:53.238Z,72.78
2019-03-25T10:23:53.246Z,72.99
2019-03-25T10:24:53.224Z,72.47
2019-03-25T10:25:53.213Z,73.60
2019-03-25T10:26:53.196Z,72.54
2019-03-25T10:27:53.180Z,72.95
2019-03-25T10:28:53.171Z,73.26
2019-03-25T10:29:53.183Z,73.77
2019-03-25T10:30:53.153Z,74.40
2019-03-25T10:31:53.222Z,74.71
2019-03-25T10:32:53.127Z,74.67
2019-03-25T10:33:53.126Z,75.12
2019-03-25T10:34:53.103Z,74.40
2019-03-25T10:35:53.089Z,72.36
2019-03-25T10:36:53.085Z,74.53
2019-03-25T10:37:53.068Z,74.19
2019-03-25T10:38:53.068Z,74.63
2019-03-25T10:39:53.060Z,75.32
2019-03-25T10:40:53.105Z,73.36
2019-03-25T10:41:53.080Z,72.74
2019-03-25T10:42:53.034Z,72.85
2019-03-25T10:43:53.007Z,72.99
2019-03-25T10:44:53.049Z,72.13
2019-03-25T10:45:53.013Z,72.67
2019-03-25T10:46:52.976Z,72.64
2019-03-25T10:47:52.975Z,72.54
2019-03-25T10:48:52.961Z,71.68
2019-03-25T10:49:52.937Z,70.41
2019-03-25T10:50:52.931Z,70.37
2019-03-25T10:51:52.913Z,70.28
2019-03-25T10:52:52.902Z,70.14
2019-03-25T10:53:52.897Z,67.94
2019-03-25T10:54:53.013Z,67.74
2019-03-25T10:55:52.877Z,68.12
2019-03-25T10:56:52.858Z,66.88
2019-03-25T10:57:52.842Z,66.13
2019-03-25T10:58:58.101Z,66.27
2019-03-25T10:59:53.823Z,66.44
2019-03-25T11:00:52.811Z,66.13
2019-03-25T11:01:52.798Z,65.28
2019-03-25T11:02:52.801Z,64.15
2019-03-25T11:03:52.774Z,63.74
2019-03-25T11:04:52.773Z,63.22
2019-03-25T11:05:52.751Z,63.94
2019-03-25T11:06:52.786Z,62.81
2019-03-25T11:07:52.731Z,62.92
2019-03-25T11:08:52.726Z,62.81
2019-03-25T11:09:52.708Z,62.68
2019-03-25T11:10:52.693Z,61.96
2019-03-25T11:11:52.684Z,62.88
2019-03-25T11:12:52.679Z,61.76
2019-03-25T11:13:52.668Z,62.06
2019-03-25T11:14:52.658Z,61.88
2019-03-25T11:15:52.650Z,61.86
2019-03-25T11:17:01.327Z,61.44
2019-03-25T11:18:34.831Z,60.52
2019-03-25T11:19:34.806Z,61.65
2019-03-25T11:20:34.808Z,61.47
2019-03-25T11:21:34.794Z,62.58
2019-03-25T11:22:34.833Z,62.40
2019-03-25T11:23:34.758Z,63.56
2019-03-25T11:24:34.773Z,63.67
2019-03-25T11:25:34.742Z,63.15
2019-03-25T11:26:34.736Z,64.39
2019-03-25T11:27:34.742Z,63.56
2019-03-25T11:28:34.701Z,62.87
2019-03-25T11:29:34.704Z,64.11
2019-03-25T11:30:34.710Z,64.34
2019-03-25T11:31:34.682Z,64.41
2019-03-25T11:32:34.718Z,65.34
2019-03-25T11:33:34.667Z,65.23
2019-03-25T11:34:34.711Z,66.06
2019-03-25T11:35:34.637Z,67.22
2019-03-25T11:36:34.637Z,69.49
2019-03-25T11:37:34.615Z,70.45
2019-03-25T11:38:34.613Z,70.83
2019-03-25T11:39:34.591Z,68.90
2019-03-25T11:40:34.600Z,69.42
2019-03-25T11:41:34.571Z,70.17
2019-03-25T11:42:34.572Z,68.49
2019-03-25T11:43:34.549Z,71.20
2019-03-25T11:44:34.554Z,68.52
2019-03-25T11:45:34.549Z,70.17
2019-03-25T11:46:34.521Z,70.48
2019-03-25T11:47:34.523Z,69.65
2019-03-25T11:48:34.515Z,70.45
2019-03-25T11:49:34.503Z,70.76
2019-03-25T11:50:34.483Z,71.27
2019-03-25T11:51:34.465Z,71.75
2019-03-25T11:52:34.448Z,72.58
2019-03-25T11:53:34.436Z,71.82
2019-03-25T11:54:34.508Z,72.85
2019-03-25T11:55:34.448Z,70.79
2019-03-25T11:56:34.430Z,69.73
2019-03-25T11:57:34.395Z,69.42
2019-03-25T11:58:34.388Z,70.35
2019-03-25T11:59:34.394Z,70.25
2019-03-25T12:00:34.441Z,67.47
2019-03-25T12:01:34.386Z,68.70
2019-03-25T12:02:34.360Z,67.78
2019-03-25T12:03:34.349Z,67.98
2019-03-25T12:04:34.323Z,67.23
2019-03-25T12:05:34.316Z,66.10
2019-03-25T12:06:34.302Z,66.93
2019-03-25T12:07:34.302Z,65.69
2019-03-25T12:08:34.294Z,66.41
2019-03-25T12:09:34.292Z,66.00
2019-03-25T12:10:34.265Z,65.35
2019-03-25T12:11:34.261Z,64.29
2019-03-25T12:12:34.245Z,63.47
2019-03-25T12:13:34.238Z,62.83
2019-03-25T12:14:34.221Z,61.80
2019-03-25T12:15:34.202Z,61.36
2019-03-25T12:16:34.205Z,60.54
2019-03-25T12:17:34.185Z,59.38
2019-03-25T12:18:34.189Z,60.00
2019-03-25T12:19:34.165Z,60.82
2019-03-25T12:20:34.155Z,58.15
2019-03-25T12:21:34.143Z,57.43
2019-03-25T12:22:34.134Z,57.13
2019-03-25T12:23:34.130Z,55.90
2019-03-25T12:24:34.110Z,55.66
2019-03-25T12:25:34.094Z,54.64
2019-03-25T12:26:34.088Z,53.95
2019-03-25T12:27:34.137Z,53.74
2019-03-25T12:28:34.068Z,54.36
2019-03-25T12:29:34.089Z,54.79
2019-03-25T12:30:34.042Z,56.15
2019-03-25T12:31:34.030Z,57.62
2019-03-25T12:32:34.015Z,58.92
2019-03-25T12:33:34.008Z,59.36
2019-03-25T12:34:34.093Z,60.70
2019-03-25T12:35:34.017Z,62.45
2019-03-25T12:36:33.979Z,62.78
2019-03-25T12:37:33.966Z,63.71
2019-03-25T12:38:33.946Z,64.15
2019-03-25T12:39:33.945Z,64.25
2019-03-25T12:40:33.929Z,65.08
2019-03-25T12:41:33.930Z,65.14
2019-03-25T12:42:33.904Z,65.08
2019-03-25T12:43:33.910Z,65.69
2019-03-25T12:44:33.891Z,66.13
2019-03-25T12:45:33.873Z,66.54
2019-03-25T12:46:33.890Z,67.26
2019-03-25T12:47:33.866Z,67.44
2019-03-25T12:48:33.840Z,67.44
2019-03-25T12:49:33.831Z,66.72
2019-03-25T12:50:33.837Z,67.36
2019-03-25T12:51:33.820Z,67.98
2019-03-25T12:52:33.798Z,67.16
2019-03-25T12:53:33.787Z,66.85
2019-03-25T12:54:33.777Z,66.51
2019-03-25T12:55:33.765Z,66.93